createdAt,value
2017-06-02T00:00:45.951Z,99.99
2017-06-02T00:01:45.938Z,99.99
2017-06-02T00:02:45.931Z,99.99
2017-06-02T00:03:45.983Z,99.99
2017-06-02T00:04:45.912Z,99.99
2017-06-02T00:05:45.900Z,99.99
2017-06-02T00:06:45.891Z,99.99
2017-06-02T00:07:45.578Z,99.99
2017-06-02T00:08:45.869Z,99.99
2017-06-02T00:09:45.857Z,99.99
2017-06-02T00:10:45.849Z,99.99
2017-06-02T00:11:45.840Z,99.99
2017-06-02T00:12:45.826Z,99.99
2017-06-02T00:13:45.816Z,99.99
2017-06-02T00:14:45.806Z,99.99
2017-06-02T00:15:45.796Z,99.99
2017-06-02T00:16:45.785Z,99.99
2017-06-02T00:17:45.777Z,99.99
2017-06-02T00:18:45.764Z,99.99
2017-06-02T00:19:45.753Z,99.99
2017-06-02T00:20:59.132Z,99.99
2017-06-02T00:21:45.734Z,99.99
2017-06-02T00:22:45.722Z,99.99
2017-06-02T00:23:45.711Z,99.99
2017-06-02T00:24:45.705Z,99.99
2017-06-02T00:25:45.905Z,99.99
2017-06-02T00:26:59.068Z,99.99
2017-06-02T00:27:45.370Z,99.99
2017-06-02T00:28:45.662Z,99.99
2017-06-02T00:29:45.352Z,99.99
2017-06-02T00:30:45.641Z,99.99
2017-06-02T00:31:45.634Z,99.99
2017-06-02T00:32:45.621Z,99.99
2017-06-02T00:33:45.610Z,99.99
2017-06-02T00:34:45.601Z,99.99
2017-06-02T00:35:45.591Z,99.99
2017-06-02T00:36:45.586Z,99.99
2017-06-02T00:37:45.569Z,99.99
2017-06-02T00:38:45.557Z,99.99
2017-06-02T00:39:45.552Z,99.99
2017-06-02T00:40:45.540Z,99.99
2017-06-02T00:41:45.537Z,99.99
2017-06-02T00:42:45.520Z,99.99
2017-06-02T00:43:45.507Z,99.99
2017-06-02T00:44:45.497Z,99.99
2017-06-02T00:45:45.487Z,99.99
2017-06-02T00:46:45.479Z,99.99
2017-06-02T00:47:45.468Z,99.99
2017-06-02T00:48:45.457Z,99.99
2017-06-02T00:49:45.445Z,99.99
2017-06-02T00:50:45.434Z,99.99
2017-06-02T00:51:45.424Z,99.99
2017-06-02T00:52:45.416Z,99.99
2017-06-02T00:53:45.409Z,99.99
2017-06-02T00:54:45.394Z,99.99
2017-06-02T00:55:45.382Z,99.99
2017-06-02T00:56:45.372Z,99.99
2017-06-02T00:57:45.363Z,99.99
2017-06-02T00:58:45.352Z,99.99
2017-06-02T00:59:45.339Z,99.99
2017-06-02T01:00:45.329Z,99.99
2017-06-02T01:01:45.319Z,99.99
2017-06-02T01:02:45.305Z,99.99
2017-06-02T01:03:45.296Z,99.99
2017-06-02T01:04:45.286Z,99.99
2017-06-02T01:05:45.273Z,99.99
2017-06-02T01:06:45.261Z,99.99
2017-06-02T01:07:45.252Z,99.99
2017-06-02T01:08:45.240Z,99.99
2017-06-02T01:09:45.230Z,99.99
2017-06-02T01:10:45.217Z,99.99
2017-06-02T01:11:45.206Z,99.99
2017-06-02T01:12:44.895Z,99.99
2017-06-02T01:13:45.236Z,99.99
2017-06-02T01:14:45.171Z,99.99
2017-06-02T01:15:45.163Z,99.99
2017-06-02T01:16:45.149Z,99.99
2017-06-02T01:17:45.139Z,99.99
2017-06-02T01:18:45.130Z,99.99
2017-06-02T01:19:45.115Z,99.99
2017-06-02T01:20:45.108Z,99.99
2017-06-02T01:21:44.792Z,99.99
2017-06-02T01:22:44.783Z,99.99
2017-06-02T01:23:45.073Z,99.99
2017-06-02T01:24:45.058Z,99.99
2017-06-02T01:25:44.747Z,99.99
2017-06-02T01:26:44.750Z,99.99
2017-06-02T01:27:45.029Z,99.99
2017-06-02T01:28:44.713Z,99.99
2017-06-02T01:29:44.704Z,99.99
2017-06-02T01:30:44.691Z,99.99
2017-06-02T01:31:44.681Z,99.99
2017-06-02T01:32:44.976Z,99.99
2017-06-02T01:33:44.961Z,99.99
2017-06-02T01:34:44.647Z,99.99
2017-06-02T01:35:44.937Z,99.99
2017-06-02T01:36:44.930Z,99.99
2017-06-02T01:37:44.923Z,99.99
2017-06-02T01:38:44.907Z,99.99
2017-06-02T01:39:44.892Z,99.99
2017-06-02T01:40:44.884Z,99.99
2017-06-02T01:41:44.569Z,99.99
2017-06-02T01:42:44.865Z,99.99
2017-06-02T01:43:44.850Z,99.99
2017-06-02T01:44:44.844Z,99.99
2017-06-02T01:45:44.831Z,99.99
2017-06-02T01:46:44.816Z,99.99
2017-06-02T01:47:44.811Z,99.99
2017-06-02T01:48:44.800Z,99.99
2017-06-02T01:49:44.786Z,99.99
2017-06-02T01:50:44.776Z,99.99
2017-06-02T01:51:44.769Z,99.99
2017-06-02T01:52:44.754Z,99.99
2017-06-02T01:53:44.744Z,99.99
2017-06-02T01:54:44.732Z,99.99
2017-06-02T01:55:44.724Z,99.99
2017-06-02T01:56:44.712Z,99.99
2017-06-02T01:57:44.706Z,99.99
2017-06-02T01:58:44.693Z,99.99
2017-06-02T01:59:44.685Z,99.99
2017-06-02T02:00:44.671Z,99.99
2017-06-02T02:01:44.663Z,99.99
2017-06-02T02:02:44.651Z,99.99
2017-06-02T02:03:44.344Z,99.99
2017-06-02T02:04:44.634Z,99.99
2017-06-02T02:05:44.622Z,99.99
2017-06-02T02:06:44.610Z,99.99
2017-06-02T02:07:44.603Z,99.99
2017-06-02T02:08:44.594Z,99.99
2017-06-02T02:09:44.581Z,99.99
2017-06-02T02:10:44.573Z,99.99
2017-06-02T02:11:44.565Z,99.99
2017-06-02T02:12:44.556Z,99.99
2017-06-02T02:13:44.544Z,99.99
2017-06-02T02:14:44.536Z,99.99
2017-06-02T02:15:44.529Z,99.99
2017-06-02T02:16:44.518Z,99.99
2017-06-02T02:17:44.502Z,99.99
2017-06-02T02:18:44.491Z,99.99
2017-06-02T02:19:44.483Z,99.99
2017-06-02T02:20:44.488Z,99.99
2017-06-02T02:21:44.464Z,99.99
2017-06-02T02:22:44.454Z,99.99
2017-06-02T02:23:44.491Z,99.99
2017-06-02T02:24:44.433Z,99.99
2017-06-02T02:25:44.423Z,99.99
2017-06-02T02:26:44.411Z,99.99
2017-06-02T02:27:44.400Z,99.99
2017-06-02T02:28:44.390Z,99.99
2017-06-02T02:29:44.383Z,99.99
2017-06-02T02:30:44.372Z,99.99
2017-06-02T02:31:44.362Z,99.99
2017-06-02T02:32:44.348Z,99.99
2017-06-02T02:33:44.340Z,99.99
2017-06-02T02:34:44.328Z,99.99
2017-06-02T02:35:44.318Z,99.99
2017-06-02T02:36:44.314Z,99.99
2017-06-02T02:37:44.300Z,99.99
2017-06-02T02:38:44.293Z,99.99
2017-06-02T02:39:43.981Z,99.99
2017-06-02T02:40:44.283Z,99.99
2017-06-02T02:41:44.261Z,99.99
2017-06-02T02:42:44.251Z,99.99
2017-06-02T02:43:44.240Z,99.99
2017-06-02T02:44:43.930Z,99.99
2017-06-02T02:45:44.221Z,99.99
2017-06-02T02:46:44.212Z,99.99
2017-06-02T02:47:44.205Z,99.99
2017-06-02T02:48:44.194Z,99.99
2017-06-02T02:49:44.185Z,99.99
2017-06-02T02:50:44.173Z,99.99
2017-06-02T02:51:44.166Z,99.99
2017-06-02T02:52:44.156Z,99.99
2017-06-02T02:53:44.143Z,99.99
2017-06-02T02:54:44.136Z,99.99
2017-06-02T02:55:44.126Z,99.99
2017-06-02T02:56:44.113Z,99.99
2017-06-02T02:57:44.104Z,99.99
2017-06-02T02:58:44.093Z,99.99
2017-06-02T02:59:44.084Z,99.99
2017-06-02T03:00:44.076Z,99.99
2017-06-02T03:01:44.065Z,99.99
2017-06-02T03:02:44.056Z,99.99
2017-06-02T03:03:44.045Z,99.99
2017-06-02T03:04:44.036Z,99.99
2017-06-02T03:05:44.027Z,99.99
2017-06-02T03:06:44.016Z,99.99
2017-06-02T03:07:44.007Z,99.99
2017-06-02T03:08:43.994Z,99.99
2017-06-02T03:09:43.990Z,99.99
2017-06-02T03:10:43.975Z,99.99
2017-06-02T03:11:43.666Z,99.99
2017-06-02T03:12:43.956Z,99.99
2017-06-02T03:13:43.948Z,99.99
2017-06-02T03:14:43.941Z,99.99
2017-06-02T03:15:43.927Z,99.99
2017-06-02T03:16:43.920Z,99.99
2017-06-02T03:17:43.909Z,99.99
2017-06-02T03:18:43.900Z,99.99
2017-06-02T03:19:43.890Z,99.99
2017-06-02T03:20:43.879Z,99.99
2017-06-02T03:21:43.872Z,99.99
2017-06-02T03:22:43.862Z,99.99
2017-06-02T03:23:43.848Z,99.99
2017-06-02T03:24:43.842Z,99.99
2017-06-02T03:25:43.833Z,99.99
2017-06-02T03:26:43.823Z,99.99
2017-06-02T03:27:43.812Z,99.99
2017-06-02T03:28:43.803Z,99.99
2017-06-02T03:29:43.793Z,99.99
2017-06-02T03:30:43.786Z,99.99
2017-06-02T03:31:43.779Z,99.99
2017-06-02T03:32:43.762Z,99.99
2017-06-02T03:33:43.452Z,99.99
2017-06-02T03:34:43.745Z,99.99
2017-06-02T03:35:43.738Z,99.99
2017-06-02T03:36:43.726Z,99.99
2017-06-02T03:37:43.716Z,99.99
2017-06-02T03:38:43.707Z,99.99
2017-06-02T03:39:43.695Z,99.99
2017-06-02T03:40:43.685Z,99.99
2017-06-02T03:41:43.677Z,99.99
2017-06-02T03:42:43.671Z,99.99
2017-06-02T03:43:43.657Z,99.99
2017-06-02T03:44:43.648Z,99.99
2017-06-02T03:45:43.637Z,99.99
2017-06-02T03:46:43.628Z,99.99
2017-06-02T03:47:43.615Z,99.99
2017-06-02T03:48:43.605Z,99.99
2017-06-02T03:49:43.595Z,99.99
2017-06-02T03:50:43.589Z,99.99
2017-06-02T03:51:43.578Z,99.99
2017-06-02T03:52:43.572Z,99.99
2017-06-02T03:53:43.557Z,99.99
2017-06-02T03:54:43.547Z,99.99
2017-06-02T03:55:43.536Z,99.99
2017-06-02T03:56:43.527Z,99.99
2017-06-02T03:57:43.517Z,99.99
2017-06-02T03:58:43.506Z,99.99
2017-06-02T03:59:43.496Z,99.99
2017-06-02T04:00:43.487Z,99.99
2017-06-02T04:01:43.475Z,99.99
2017-06-02T04:02:43.463Z,99.99
2017-06-02T04:03:43.453Z,99.99
2017-06-02T04:04:43.142Z,99.99
2017-06-02T04:05:43.432Z,99.99
2017-06-02T04:06:43.421Z,99.99
2017-06-02T04:07:43.408Z,99.99
2017-06-02T04:08:43.401Z,99.99
2017-06-02T04:09:43.385Z,99.99
2017-06-02T04:10:43.380Z,99.99
2017-06-02T04:11:43.367Z,99.99
2017-06-02T04:12:43.354Z,99.99
2017-06-02T04:13:43.343Z,99.99
2017-06-02T04:14:43.331Z,99.99
2017-06-02T04:15:43.321Z,99.99
2017-06-02T04:16:43.315Z,99.99
2017-06-02T04:17:43.300Z,99.99
2017-06-02T04:18:43.292Z,99.99
2017-06-02T04:19:42.976Z,99.99
2017-06-02T04:20:43.265Z,99.99
2017-06-02T04:21:43.255Z,99.99
2017-06-02T04:22:43.246Z,99.99
2017-06-02T04:23:43.232Z,99.99
2017-06-02T04:24:43.224Z,99.99
2017-06-02T04:25:43.214Z,99.99
2017-06-02T04:26:43.197Z,99.99
2017-06-02T04:27:43.188Z,99.99
2017-06-02T04:28:43.179Z,99.99
2017-06-02T04:29:43.165Z,99.99
2017-06-02T04:30:43.157Z,99.99
2017-06-02T04:31:43.143Z,99.99
2017-06-02T04:32:43.132Z,99.99
2017-06-02T04:33:43.121Z,99.99
2017-06-02T04:34:43.111Z,99.99
2017-06-02T04:35:43.097Z,99.99
2017-06-02T04:36:43.088Z,99.99
2017-06-02T04:37:43.079Z,99.99
2017-06-02T04:38:43.066Z,99.99
2017-06-02T04:39:43.050Z,99.99
2017-06-02T04:40:43.042Z,99.99
2017-06-02T04:41:42.731Z,99.99
2017-06-02T04:42:43.019Z,99.99
2017-06-02T04:43:43.006Z,99.99
2017-06-02T04:44:42.998Z,99.99
2017-06-02T04:45:42.987Z,99.99
2017-06-02T04:46:42.975Z,99.99
2017-06-02T04:47:42.661Z,99.99
2017-06-02T04:48:42.951Z,99.99
2017-06-02T04:49:42.939Z,99.99
2017-06-02T04:50:42.930Z,99.99
2017-06-02T04:51:42.920Z,99.99
2017-06-02T04:52:42.923Z,99.99
2017-06-02T04:53:42.593Z,99.99
2017-06-02T04:54:42.884Z,99.99
2017-06-02T04:55:42.877Z,99.99
2017-06-02T04:56:42.863Z,99.99
2017-06-02T04:57:42.853Z,99.99
2017-06-02T04:58:42.840Z,99.99
2017-06-02T04:59:42.832Z,99.99
2017-06-02T05:00:42.817Z,99.99
2017-06-02T05:01:42.807Z,99.99
2017-06-02T05:02:42.795Z,99.99
2017-06-02T05:03:42.787Z,99.99
2017-06-02T05:04:42.772Z,99.99
2017-06-02T05:05:42.461Z,99.99
2017-06-02T05:06:42.756Z,99.99
2017-06-02T05:07:42.742Z,99.99
2017-06-02T05:08:42.735Z,99.99
2017-06-02T05:09:42.719Z,99.99
2017-06-02T05:10:42.709Z,99.99
2017-06-02T05:11:42.697Z,99.99
2017-06-02T05:12:42.685Z,99.99
2017-06-02T05:13:42.675Z,99.99
2017-06-02T05:14:42.663Z,99.99
2017-06-02T05:15:42.653Z,99.99
2017-06-02T05:16:42.645Z,99.99
2017-06-02T05:17:42.630Z,99.99
2017-06-02T05:18:42.617Z,99.99
2017-06-02T05:19:42.610Z,99.99
2017-06-02T05:20:42.610Z,99.99
2017-06-02T05:21:42.589Z,99.99
2017-06-02T05:22:42.577Z,99.99
2017-06-02T05:23:42.565Z,99.99
2017-06-02T05:24:42.553Z,99.99
2017-06-02T05:25:42.242Z,99.99
2017-06-02T05:26:42.533Z,99.99
2017-06-02T05:27:42.522Z,99.99
2017-06-02T05:28:42.510Z,99.99
2017-06-02T05:29:42.499Z,99.99
2017-06-02T05:30:42.489Z,99.99
2017-06-02T05:31:42.478Z,99.99
2017-06-02T05:32:42.465Z,99.99
2017-06-02T05:33:42.455Z,99.99
2017-06-02T05:34:42.444Z,99.99
2017-06-02T05:35:42.432Z,99.99
2017-06-02T05:36:42.420Z,99.99
2017-06-02T05:37:42.408Z,99.99
2017-06-02T05:38:42.396Z,99.99
2017-06-02T05:39:42.389Z,99.99
2017-06-02T05:40:42.373Z,99.99
2017-06-02T05:41:42.362Z,99.99
2017-06-02T05:42:42.357Z,99.99
2017-06-02T05:43:42.340Z,99.99
2017-06-02T05:44:42.031Z,99.99
2017-06-02T05:45:42.318Z,99.99
2017-06-02T05:46:42.311Z,99.99
2017-06-02T05:47:42.301Z,99.99
2017-06-02T05:48:42.287Z,99.99
2017-06-02T05:49:42.275Z,99.99
2017-06-02T05:50:42.269Z,99.99
2017-06-02T05:51:42.254Z,99.99
2017-06-02T05:52:42.244Z,99.99
2017-06-02T05:53:42.232Z,99.99
2017-06-02T05:54:42.228Z,99.99
2017-06-02T05:55:42.208Z,99.99
2017-06-02T05:56:42.202Z,99.99
2017-06-02T05:57:41.888Z,99.99
2017-06-02T05:58:42.177Z,99.99
2017-06-02T05:59:42.166Z,99.99
2017-06-02T06:00:42.158Z,99.99
2017-06-02T06:01:42.145Z,99.99
2017-06-02T06:02:42.133Z,99.99
2017-06-02T06:03:42.123Z,99.99
2017-06-02T06:04:42.113Z,99.99
2017-06-02T06:05:42.106Z,99.99
2017-06-02T06:06:42.093Z,99.99
2017-06-02T06:07:42.084Z,99.99
2017-06-02T06:08:42.072Z,99.99
2017-06-02T06:09:42.062Z,99.99
2017-06-02T06:10:42.053Z,99.99
2017-06-02T06:11:42.042Z,99.99
2017-06-02T06:12:41.729Z,99.99
2017-06-02T06:13:42.016Z,99.99
2017-06-02T06:14:42.012Z,99.99
2017-06-02T06:15:42.000Z,99.99
2017-06-02T06:16:41.986Z,99.99
2017-06-02T06:17:41.978Z,99.99
2017-06-02T06:18:41.969Z,99.99
2017-06-02T06:19:41.961Z,99.99
2017-06-02T06:20:41.948Z,99.99
2017-06-02T06:21:41.937Z,99.99
2017-06-02T06:22:41.925Z,99.99
2017-06-02T06:23:41.913Z,99.99
2017-06-02T06:24:41.903Z,99.99
2017-06-02T06:25:41.894Z,99.99
2017-06-02T06:26:41.880Z,99.99
2017-06-02T06:27:41.875Z,99.99
2017-06-02T06:28:41.862Z,99.99
2017-06-02T06:29:41.853Z,99.99
2017-06-02T06:30:41.841Z,99.99
2017-06-02T06:31:41.873Z,99.99
2017-06-02T06:32:41.821Z,99.99
2017-06-02T06:33:41.813Z,99.99
2017-06-02T06:34:41.864Z,99.99
2017-06-02T06:35:41.794Z,99.99
2017-06-02T06:36:41.785Z,99.99
2017-06-02T06:37:41.774Z,99.99
2017-06-02T06:38:41.764Z,99.99
2017-06-02T06:39:41.752Z,99.99
2017-06-02T06:40:41.745Z,99.99
2017-06-02T06:41:41.432Z,99.99
2017-06-02T06:42:41.722Z,99.99
2017-06-02T06:43:41.714Z,99.99
2017-06-02T06:44:41.705Z,99.99
2017-06-02T06:48:00.582Z,99.99
2017-06-02T06:48:41.666Z,99.99
2017-06-02T06:49:41.660Z,99.99
2017-06-02T06:50:41.649Z,99.99
2017-06-02T06:51:41.638Z,99.99
2017-06-02T06:52:41.631Z,99.99
2017-06-02T06:53:41.317Z,99.99
2017-06-02T06:54:41.613Z,99.99
2017-06-02T06:55:41.606Z,99.99
2017-06-02T06:56:41.596Z,99.99
2017-06-02T06:57:41.641Z,99.99
2017-06-02T06:58:41.576Z,99.99
2017-06-02T06:59:41.568Z,99.99
2017-06-02T07:00:41.558Z,99.99
2017-06-02T07:01:41.548Z,99.99
2017-06-02T07:02:41.542Z,99.99
2017-06-02T07:03:41.534Z,99.99
2017-06-02T07:04:41.521Z,99.99
2017-06-02T07:05:41.514Z,99.99
2017-06-02T07:06:41.506Z,99.99
2017-06-02T07:07:41.494Z,99.99
2017-06-02T07:08:41.486Z,99.99
2017-06-02T07:09:41.478Z,99.99
2017-06-02T07:10:41.468Z,99.99
2017-06-02T07:11:41.462Z,99.99
2017-06-02T07:12:41.467Z,99.99
2017-06-02T07:13:41.445Z,99.99
2017-06-02T07:14:41.434Z,99.99
2017-06-02T07:15:41.424Z,99.99
2017-06-02T07:16:41.417Z,99.99
2017-06-02T07:17:41.107Z,99.99
2017-06-02T07:18:41.401Z,99.99
2017-06-02T07:19:41.394Z,99.99
2017-06-02T07:20:41.381Z,99.99
2017-06-02T07:21:41.376Z,99.99
2017-06-02T07:22:41.368Z,99.99
2017-06-02T07:23:41.359Z,99.99
2017-06-02T07:24:41.352Z,99.99
2017-06-02T07:25:41.345Z,99.99
2017-06-02T07:26:41.338Z,99.99
2017-06-02T07:27:41.327Z,99.99
2017-06-02T07:28:41.321Z,99.99
2017-06-02T07:29:41.311Z,99.99
2017-06-02T07:30:41.356Z,99.99
2017-06-02T07:31:41.298Z,99.99
2017-06-02T07:32:41.289Z,99.99
2017-06-02T07:33:41.280Z,99.99
2017-06-02T07:34:41.271Z,99.99
2017-06-02T07:35:40.964Z,99.99
2017-06-02T07:36:40.956Z,99.99
2017-06-02T07:37:41.248Z,99.99
2017-06-02T07:38:41.240Z,99.99
2017-06-02T07:39:40.934Z,99.99
2017-06-02T07:40:41.226Z,99.99
2017-06-02T07:41:41.219Z,99.99
2017-06-02T07:42:40.907Z,99.99
2017-06-02T07:43:41.202Z,99.99
2017-06-02T07:44:40.893Z,99.99
2017-06-02T07:45:41.187Z,99.99
2017-06-02T07:46:40.879Z,99.99
2017-06-02T07:47:41.174Z,99.99
2017-06-02T07:48:41.163Z,99.99
2017-06-02T07:49:40.858Z,99.99
2017-06-02T07:50:41.151Z,99.99
2017-06-02T07:51:41.142Z,99.99
2017-06-02T07:52:41.136Z,99.99
2017-06-02T07:53:41.128Z,99.99
2017-06-02T07:54:41.123Z,99.99
2017-06-02T07:55:41.112Z,99.99
2017-06-02T07:56:41.105Z,99.99
2017-06-02T07:57:41.102Z,99.99
2017-06-02T07:58:41.094Z,99.99
2017-06-02T07:59:41.115Z,99.99
2017-06-02T08:00:41.081Z,99.99
2017-06-02T08:01:41.075Z,99.99
2017-06-02T08:02:41.068Z,99.99
2017-06-02T08:03:41.062Z,99.99
2017-06-02T08:04:41.050Z,99.99
2017-06-02T08:05:41.049Z,99.99
2017-06-02T08:06:41.041Z,99.99
2017-06-02T08:07:41.031Z,99.99
2017-06-02T08:08:41.024Z,99.99
2017-06-02T08:09:41.017Z,99.99
2017-06-02T08:10:41.012Z,99.99
2017-06-02T08:11:40.704Z,99.99
2017-06-02T08:12:40.998Z,99.99
2017-06-02T08:13:40.992Z,99.99
2017-06-02T08:14:40.984Z,99.99
2017-06-02T08:15:40.979Z,99.99
2017-06-02T08:16:40.671Z,99.99
2017-06-02T08:17:40.963Z,99.99
2017-06-02T08:18:40.956Z,99.99
2017-06-02T08:19:40.953Z,99.99
2017-06-02T08:20:40.944Z,99.99
2017-06-02T08:21:40.938Z,99.99
2017-06-02T08:22:40.932Z,99.99
2017-06-02T08:23:40.943Z,99.99
2017-06-02T08:24:40.919Z,99.99
2017-06-02T08:25:40.910Z,99.99
2017-06-02T08:26:40.903Z,99.99
2017-06-02T08:27:40.897Z,99.99
2017-06-02T08:28:40.889Z,99.99
2017-06-02T08:29:40.881Z,99.99
2017-06-02T08:30:40.573Z,99.99
2017-06-02T08:31:40.869Z,99.99
2017-06-02T08:32:40.861Z,99.99
2017-06-02T08:33:40.853Z,99.99
2017-06-02T08:34:40.847Z,99.99
2017-06-02T08:35:40.844Z,99.99
2017-06-02T08:36:40.836Z,99.99
2017-06-02T08:37:40.832Z,99.99
2017-06-02T08:38:40.828Z,99.99
2017-06-02T08:39:40.812Z,99.99
2017-06-02T08:40:40.809Z,99.99
2017-06-02T08:41:40.802Z,99.99
2017-06-02T08:42:40.792Z,99.99
2017-06-02T08:43:40.789Z,99.99
2017-06-02T08:44:40.776Z,99.99
2017-06-02T08:45:40.772Z,99.99
2017-06-02T08:46:40.765Z,99.99
2017-06-02T08:47:40.757Z,99.99
2017-06-02T08:48:40.754Z,99.99
2017-06-02T08:49:40.745Z,99.99
2017-06-02T08:50:40.735Z,99.99
2017-06-02T08:51:40.727Z,99.99
2017-06-02T08:52:40.721Z,99.99
2017-06-02T08:53:40.715Z,99.99
2017-06-02T08:54:40.706Z,99.99
2017-06-02T08:55:40.700Z,99.99
2017-06-02T08:56:40.697Z,99.99
2017-06-02T08:57:40.684Z,99.99
2017-06-02T08:58:40.680Z,99.99
2017-06-02T08:59:40.673Z,99.99
2017-06-02T09:00:40.700Z,99.99
2017-06-02T09:01:40.658Z,99.99
2017-06-02T09:02:40.651Z,99.99
2017-06-02T09:03:40.643Z,99.99
2017-06-02T09:04:40.638Z,99.99
2017-06-02T09:05:40.628Z,99.99
2017-06-02T09:06:40.621Z,99.99
2017-06-02T09:07:40.616Z,99.99
2017-06-02T09:08:40.607Z,99.99
2017-06-02T09:09:40.603Z,99.99
2017-06-02T09:10:40.594Z,99.99
2017-06-02T09:11:40.586Z,99.99
2017-06-02T09:12:40.580Z,99.99
2017-06-02T09:13:40.578Z,99.99
2017-06-02T09:14:40.568Z,99.99
2017-06-02T09:15:40.560Z,99.99
2017-06-02T09:16:40.628Z,99.99
2017-06-02T09:17:40.547Z,99.99
2017-06-02T09:18:40.299Z,99.99
2017-06-02T09:19:40.232Z,99.99
2017-06-02T09:20:40.530Z,99.99
2017-06-02T09:21:40.518Z,99.99
2017-06-02T09:22:40.511Z,99.99
2017-06-02T09:23:40.504Z,99.99
2017-06-02T09:24:40.500Z,99.99
2017-06-02T09:25:40.496Z,99.99
2017-06-02T09:26:40.489Z,99.99
2017-06-02T09:27:40.479Z,99.99
2017-06-02T09:28:40.173Z,99.99
2017-06-02T09:29:40.469Z,99.99
2017-06-02T09:30:40.461Z,99.99
2017-06-02T09:31:40.456Z,99.99
2017-06-02T09:32:40.450Z,99.99
2017-06-02T09:33:40.445Z,99.99
2017-06-02T09:34:40.437Z,99.99
2017-06-02T09:35:40.431Z,99.99
2017-06-02T09:36:40.425Z,99.99
2017-06-02T09:37:40.417Z,99.99
2017-06-02T09:38:40.414Z,99.99
2017-06-02T09:39:40.406Z,99.99
2017-06-02T09:40:40.101Z,99.99
2017-06-02T09:41:40.393Z,99.99
2017-06-02T09:42:40.387Z,99.99
2017-06-02T09:43:40.385Z,99.99
2017-06-02T09:44:40.388Z,99.99
2017-06-02T09:45:40.371Z,99.99
2017-06-02T09:46:40.368Z,99.99
2017-06-02T09:47:40.359Z,99.99
2017-06-02T09:48:40.356Z,99.99
2017-06-02T09:49:40.348Z,99.99
2017-06-02T09:50:40.346Z,99.99
2017-06-02T09:51:40.337Z,99.99
2017-06-02T09:52:40.332Z,99.99
2017-06-02T09:53:40.326Z,99.99
2017-06-02T09:54:40.321Z,99.99
2017-06-02T09:55:40.318Z,99.99
2017-06-02T09:56:40.311Z,99.99
2017-06-02T09:57:40.301Z,99.99
2017-06-02T09:58:40.300Z,99.99
2017-06-02T09:59:40.297Z,99.99
2017-06-02T10:00:39.985Z,99.99
2017-06-02T10:01:40.284Z,99.99
2017-06-02T10:02:40.279Z,99.99
2017-06-02T10:03:40.273Z,99.99
2017-06-02T10:04:40.322Z,99.99
2017-06-02T10:05:40.264Z,99.99
2017-06-02T10:06:40.259Z,99.99
2017-06-02T10:07:40.249Z,99.99
2017-06-02T10:08:40.248Z,99.99
2017-06-02T10:09:40.241Z,99.99
2017-06-02T10:10:40.240Z,99.49
2017-06-02T10:11:39.931Z,99.01
2017-06-02T10:12:40.232Z,98.34
2017-06-02T10:13:40.225Z,98.29
2017-06-02T10:14:40.223Z,98
2017-06-02T10:15:40.222Z,98
2017-06-02T10:16:40.218Z,97.66
2017-06-02T10:17:40.218Z,97.42
2017-06-02T10:18:40.211Z,97.47
2017-06-02T10:19:40.208Z,97.52
2017-06-02T10:20:39.903Z,96.8
2017-06-02T10:21:40.202Z,97.14
2017-06-02T10:22:40.198Z,96.61
2017-06-02T10:23:40.195Z,96.8
2017-06-02T10:24:40.193Z,97.18
2017-06-02T10:25:40.190Z,97.08
2017-06-02T10:26:40.188Z,97.42
2017-06-02T10:27:40.177Z,98.03
2017-06-02T10:28:40.174Z,98.08
2017-06-02T10:29:39.867Z,98.18
2017-06-02T10:30:40.166Z,98.41
2017-06-02T10:31:40.157Z,98.65
2017-06-02T10:32:40.156Z,98.94
2017-06-02T10:33:40.147Z,99.36
2017-06-02T10:34:40.146Z,99.65
2017-06-02T10:35:40.135Z,99.84
2017-06-02T10:36:40.127Z,99.74
2017-06-02T10:37:40.124Z,99.79
2017-06-02T10:38:40.118Z,99.79
2017-06-02T10:39:40.110Z,99.99
2017-06-02T10:40:40.104Z,99.99
2017-06-02T10:41:40.096Z,99.99
2017-06-02T10:42:40.086Z,99.99
2017-06-02T10:43:40.083Z,99.99
2017-06-02T10:44:40.075Z,99.99
2017-06-02T10:45:40.068Z,99.99
2017-06-02T10:46:40.057Z,99.99
2017-06-02T10:47:39.749Z,99.99
2017-06-02T10:48:40.043Z,99.99
2017-06-02T10:49:40.036Z,99.99
2017-06-02T10:50:40.030Z,99.99
2017-06-02T10:51:40.017Z,99.99
2017-06-02T10:52:40.013Z,99.99
2017-06-02T10:53:40.005Z,99.99
2017-06-02T10:54:39.994Z,99.99
2017-06-02T10:55:39.988Z,99.99
2017-06-02T10:56:39.979Z,99.99
2017-06-02T10:57:39.971Z,99.99
2017-06-02T10:58:39.970Z,99.99
2017-06-02T10:59:39.952Z,99.99
2017-06-02T11:00:39.649Z,99.99
2017-06-02T11:01:39.940Z,99.99
2017-06-02T11:02:39.927Z,99.99
2017-06-02T11:03:39.919Z,99.99
2017-06-02T11:04:39.917Z,99.99
2017-06-02T11:05:39.903Z,99.99
2017-06-02T11:06:39.895Z,99.99
2017-06-02T11:07:39.886Z,99.99
2017-06-02T11:08:39.880Z,99.99
2017-06-02T11:09:39.871Z,99.99
2017-06-02T11:10:39.861Z,99.99
2017-06-02T11:11:39.854Z,99.99
2017-06-02T11:12:39.848Z,99.99
2017-06-02T11:13:39.841Z,99.99
2017-06-02T11:14:39.831Z,99.99
2017-06-02T11:15:39.827Z,99.99
2017-06-02T11:16:39.829Z,99.99
2017-06-02T11:17:39.808Z,99.99
2017-06-02T11:18:39.800Z,99.99
2017-06-02T11:19:39.792Z,99.99
2017-06-02T11:20:39.781Z,99.99
2017-06-02T11:21:39.776Z,99.99
2017-06-02T11:22:39.769Z,99.99
2017-06-02T11:23:39.761Z,99.99
2017-06-02T11:24:39.750Z,99.99
2017-06-02T11:25:39.442Z,99.99
2017-06-02T11:26:39.736Z,99.99
2017-06-02T11:27:39.723Z,99.99
2017-06-02T11:28:39.720Z,99.99
2017-06-02T11:29:39.711Z,99.99
2017-06-02T11:30:39.702Z,99.99
2017-06-02T11:31:39.694Z,99.99
2017-06-02T11:32:39.694Z,99.99
2017-06-02T11:33:39.682Z,99.99
2017-06-02T11:34:39.371Z,99.99
2017-06-02T11:35:39.669Z,99.99
2017-06-02T11:36:39.659Z,99.99
2017-06-02T11:37:39.650Z,99.99
2017-06-02T11:38:39.638Z,99.99
2017-06-02T11:39:39.330Z,99.99
2017-06-02T11:40:39.626Z,99.99
2017-06-02T11:41:39.617Z,99.99
2017-06-02T11:42:39.608Z,99.99
2017-06-02T11:43:39.596Z,99.99
2017-06-02T11:44:39.592Z,99.99
2017-06-02T11:45:39.583Z,99.99
2017-06-02T11:46:39.578Z,99.99
2017-06-02T11:47:39.567Z,99.99
2017-06-02T11:48:39.560Z,99.99
2017-06-02T11:49:39.549Z,99.99
2017-06-02T11:50:39.541Z,99.99
2017-06-02T11:51:39.540Z,99.99
2017-06-02T11:52:39.524Z,99.99
2017-06-02T11:53:39.512Z,99.99
2017-06-02T11:54:39.507Z,99.99
2017-06-02T11:55:39.499Z,99.99
2017-06-02T11:56:39.492Z,99.99
2017-06-02T11:57:39.483Z,99.99
2017-06-02T11:58:39.470Z,99.99
2017-06-02T11:59:39.467Z,99.99
2017-06-02T12:00:39.453Z,99.99
2017-06-02T12:01:39.445Z,99.99
2017-06-02T12:02:39.432Z,99.99
2017-06-02T12:03:39.428Z,99.99
2017-06-02T12:04:39.416Z,99.99
2017-06-02T12:05:39.408Z,99.99
2017-06-02T12:06:39.398Z,99.99
2017-06-02T12:07:39.391Z,99.99
2017-06-02T12:08:39.381Z,99.99
2017-06-02T12:09:39.377Z,99.99
2017-06-02T12:10:39.365Z,99.99
2017-06-02T12:11:39.358Z,99.99
2017-06-02T12:12:39.350Z,99.99
2017-06-02T12:13:39.345Z,99.99
2017-06-02T12:14:39.337Z,99.99
2017-06-02T12:15:39.324Z,99.99
2017-06-02T12:16:39.319Z,99.99
2017-06-02T12:17:39.315Z,99.99
2017-06-02T12:18:39.304Z,99.99
2017-06-02T12:19:39.298Z,99.99
2017-06-02T12:20:39.292Z,99.99
2017-06-02T12:21:39.281Z,99.99
2017-06-02T12:22:39.273Z,99.99
2017-06-02T12:23:39.275Z,99.99
2017-06-02T12:24:39.262Z,99.99
2017-06-02T12:25:39.255Z,99.99
2017-06-02T12:26:39.247Z,99.99
2017-06-02T12:27:39.237Z,99.99
2017-06-02T12:28:39.232Z,99.99
2017-06-02T12:29:39.225Z,99.99
2017-06-02T12:30:39.217Z,99.99
2017-06-02T12:31:39.209Z,99.99
2017-06-02T12:32:39.201Z,99.99
2017-06-02T12:33:39.194Z,99.99
2017-06-02T12:34:39.195Z,99.99
2017-06-02T12:35:39.187Z,99.99
2017-06-02T12:36:39.178Z,99.99
2017-06-02T12:37:39.169Z,99.99
2017-06-02T12:38:39.163Z,99.99
2017-06-02T12:39:39.164Z,99.99
2017-06-02T12:40:39.153Z,99.99
2017-06-02T12:41:39.147Z,99.99
2017-06-02T12:42:39.139Z,99.99
2017-06-02T12:43:39.138Z,99.99
2017-06-02T12:44:39.131Z,99.99
2017-06-02T12:45:39.123Z,99.99
2017-06-02T12:46:39.120Z,99.99
2017-06-02T12:47:39.118Z,99.99
2017-06-02T12:48:39.117Z,99.99
2017-06-02T12:49:39.106Z,99.99
2017-06-02T12:50:38.803Z,99.99
2017-06-02T12:51:39.099Z,99.99
2017-06-02T12:52:39.099Z,99.99
2017-06-02T12:53:39.088Z,99.99
2017-06-02T12:54:39.089Z,99.91